createdAt,value
2022-09-26T00:08:20.536Z,11.04
2022-09-26T00:20:20.563Z,11.04
2022-09-26T00:32:20.540Z,11.03
2022-09-26T00:44:20.501Z,11.02
2022-09-26T00:56:20.549Z,11.01
2022-09-26T01:08:20.560Z,11.00
2022-09-26T01:20:20.539Z,11.00
2022-09-26T01:32:20.553Z,10.98
2022-09-26T01:44:20.535Z,10.96
2022-09-26T01:56:20.541Z,10.97
2022-09-26T02:08:20.546Z,10.96
2022-09-26T02:20:20.526Z,10.96
2022-09-26T02:32:20.541Z,10.94
2022-09-26T02:44:20.543Z,10.94
2022-09-26T02:56:20.581Z,10.94
2022-09-26T03:08:20.747Z,10.93
2022-09-26T03:20:20.557Z,10.92
2022-09-26T03:32:20.541Z,10.92
2022-09-26T03:44:20.523Z,10.91
2022-09-26T03:56:20.533Z,10.90
2022-09-26T04:08:20.679Z,10.90
2022-09-26T04:20:20.534Z,10.90
2022-09-26T04:32:20.543Z,10.89
2022-09-26T04:44:20.558Z,10.89
2022-09-26T04:56:20.594Z,10.88
2022-09-26T05:08:20.552Z,10.88
2022-09-26T05:20:20.573Z,10.87
2022-09-26T05:32:20.544Z,10.86
2022-09-26T05:44:21.213Z,10.85
2022-09-26T05:56:20.535Z,10.86
2022-09-26T06:08:20.549Z,10.87
2022-09-26T06:20:20.550Z,10.87
2022-09-26T06:32:20.558Z,10.85
2022-09-26T06:44:20.605Z,10.86
2022-09-26T06:56:20.868Z,10.86
2022-09-26T07:08:28.846Z,10.86
2022-09-26T07:20:20.536Z,10.87
2022-09-26T07:32:20.546Z,10.88
2022-09-26T07:56:20.559Z,10.97
2022-09-26T08:08:20.562Z,10.94
2022-09-26T08:20:20.769Z,10.93
2022-09-26T08:32:20.555Z,10.95
2022-09-26T08:44:20.546Z,10.97
2022-09-26T08:56:20.552Z,10.95
2022-09-26T09:08:20.532Z,10.95
2022-09-26T09:20:20.581Z,10.98
2022-09-26T09:32:20.551Z,10.96
2022-09-26T09:44:20.662Z,10.97
2022-09-26T09:56:20.559Z,10.96
2022-09-26T10:08:22.045Z,10.97
2022-09-26T10:20:20.546Z,10.96
2022-09-26T10:32:20.515Z,10.97
2022-09-26T10:44:20.575Z,10.98
2022-09-26T10:56:20.555Z,11.01
2022-09-26T11:08:20.670Z,11.00
2022-09-26T11:20:20.527Z,10.99
2022-09-26T11:32:20.553Z,11.00
2022-09-26T11:44:21.182Z,11.00
2022-09-26T11:56:20.537Z,10.99
2022-09-26T12:08:20.567Z,10.98
2022-09-26T12:20:20.523Z,10.99
2022-09-26T12:32:20.527Z,11.01
2022-09-26T12:44:20.559Z,11.03
2022-09-26T12:56:20.522Z,11.08
2022-09-26T13:08:20.512Z,11.33
2022-09-26T13:20:20.618Z,11.44
2022-09-26T13:32:20.552Z,11.36
2022-09-26T13:44:20.554Z,11.38
2022-09-26T13:56:20.527Z,11.38
2022-09-26T14:08:20.552Z,11.35
2022-09-26T14:20:20.549Z,11.33
2022-09-26T14:32:20.543Z,11.33
2022-09-26T14:44:20.583Z,11.31
2022-09-26T14:56:20.551Z,11.30
2022-09-26T15:08:20.797Z,11.29
2022-09-26T15:20:20.510Z,11.28
2022-09-26T15:32:20.559Z,11.25
2022-09-26T15:44:20.503Z,11.23
2022-09-26T15:56:21.171Z,0.00
2022-09-26T16:08:20.856Z,0.00
2022-09-26T16:20:20.542Z,0.00
2022-09-26T16:32:20.554Z,0.00
2022-09-26T16:44:26.212Z,0.00
2022-09-26T16:56:20.536Z,0.00
2022-09-26T17:08:21.035Z,0.00
2022-09-26T17:20:20.516Z,11.09
2022-09-26T17:32:20.553Z,11.07
2022-09-26T17:44:20.529Z,11.06
2022-09-26T17:56:20.504Z,11.05
2022-09-26T18:08:20.540Z,11.03
2022-09-26T18:20:20.544Z,11.03
2022-09-26T18:32:20.533Z,11.02
2022-09-26T18:44:20.496Z,11.00
2022-09-26T18:56:20.482Z,11.00
2022-09-26T19:08:21.434Z,10.98
2022-09-26T19:20:20.538Z,10.97
2022-09-26T19:32:20.513Z,10.97
2022-09-26T19:44:20.515Z,10.96
2022-09-26T19:56:20.571Z,10.95
2022-09-26T20:08:20.543Z,10.95
2022-09-26T20:20:20.552Z,10.95
2022-09-26T20:32:20.503Z,10.94
2022-09-26T20:44:20.561Z,10.93
2022-09-26T20:56:20.552Z,10.93
2022-09-26T21:08:20.505Z,10.92
2022-09-26T21:20:21.721Z,10.90
2022-09-26T21:32:20.561Z,10.91
2022-09-26T21:44:20.556Z,10.90
2022-09-26T21:56:20.541Z,10.90
2022-09-26T22:08:20.563Z,10.89
2022-09-26T22:20:20.951Z,10.89
2022-09-26T22:32:20.537Z,10.88
2022-09-26T22:44:20.504Z,10.88
2022-09-26T22:56:20.554Z,10.87
2022-09-26T23:08:20.562Z,10.86
2022-09-26T23:20:20.529Z,10.86
2022-09-26T23:32:20.580Z,10.85
2022-09-26T23:44:20.525Z,10.85
2022-09-26T23:56:20.557Z,10.85
